createdAt,value
2017-07-23T00:02:04.482Z,100023.17
2017-07-23T00:04:33.542Z,100026.33
2017-07-23T00:07:02.668Z,100024.70
2017-07-23T00:09:31.710Z,100020.54
2017-07-23T00:12:00.755Z,100010.15
2017-07-23T00:14:29.843Z,100007.19
2017-07-23T00:16:59.657Z,100014.70
2017-07-23T00:19:29.483Z,100016.87
2017-07-23T00:21:58.544Z,100021.41
2017-07-23T00:24:27.591Z,100020.05
2017-07-23T00:26:56.692Z,100021.24
2017-07-23T00:29:25.746Z,100016.55
2017-07-23T00:31:55.572Z,100019.11
2017-07-23T00:34:24.639Z,100024.66
2017-07-23T00:36:53.724Z,100021.34
2017-07-23T00:39:22.798Z,100017.00
2017-07-23T00:41:52.107Z,100014.84
2017-07-23T00:44:21.184Z,100021.73
2017-07-23T00:46:50.264Z,100014.63
2017-07-23T00:49:19.322Z,100012.47
2017-07-23T00:51:48.414Z,100016.80
2017-07-23T00:54:18.228Z,100019.56
2017-07-23T00:56:48.124Z,100017.98
2017-07-23T00:59:17.175Z,100023.30
2017-07-23T01:01:46.248Z,100026.03
2017-07-23T01:04:15.553Z,100030.75
2017-07-23T01:06:44.626Z,100022.68
2017-07-23T01:09:13.699Z,100029.58
2017-07-23T01:11:42.747Z,100025.24
2017-07-23T01:14:12.032Z,100019.92
2017-07-23T01:16:41.091Z,100023.44
2017-07-23T01:19:10.490Z,100022.26
2017-07-23T01:21:39.552Z,100003.55
2017-07-23T01:24:08.619Z,100003.75
2017-07-23T01:26:38.464Z,100004.70
2017-07-23T01:29:07.545Z,100002.53
2017-07-23T01:31:36.592Z,99998.60
2017-07-23T01:34:05.664Z,100010.02
2017-07-23T01:36:34.740Z,100020.42
2017-07-23T01:39:03.861Z,100025.73
2017-07-23T01:41:32.925Z,100022.38
2017-07-23T01:44:02.011Z,100018.45
2017-07-23T01:46:31.820Z,100011.72
2017-07-23T01:49:00.872Z,99989.91
2017-07-23T01:51:30.000Z,100000.50
2017-07-23T01:53:59.825Z,100009.16
2017-07-23T01:56:28.926Z,99991.64
2017-07-23T01:58:57.983Z,99997.09
2017-07-23T02:01:27.025Z,100007.28
2017-07-23T02:03:56.094Z,99998.78
2017-07-23T02:06:25.890Z,100005.66
2017-07-23T02:08:55.720Z,100001.50
2017-07-23T02:11:24.777Z,99998.73
2017-07-23T02:13:53.829Z,99998.53
2017-07-23T02:16:22.864Z,99992.64
2017-07-23T02:18:51.962Z,99999.13
2017-07-23T02:21:21.053Z,99997.55
2017-07-23T02:23:50.084Z,99994.61
2017-07-23T02:26:19.172Z,99987.88
2017-07-23T02:28:48.987Z,99980.02
2017-07-23T02:31:18.815Z,99971.34
2017-07-23T02:33:47.875Z,99969.73
2017-07-23T02:36:16.945Z,99969.34
2017-07-23T02:38:45.996Z,99969.88
2017-07-23T02:41:15.084Z,99963.59
2017-07-23T02:43:45.109Z,99961.98
2017-07-23T02:46:14.188Z,99971.61
2017-07-23T02:48:44.043Z,99967.83
2017-07-23T02:51:13.139Z,99975.30
2017-07-23T02:53:42.172Z,99965.84
2017-07-23T02:56:11.265Z,99956.02
2017-07-23T02:58:41.089Z,99954.80
2017-07-23T03:01:10.924Z,99958.77
2017-07-23T03:03:39.958Z,99955.63
2017-07-23T03:06:09.040Z,99950.66
2017-07-23T03:08:38.124Z,99955.33
2017-07-23T03:11:07.185Z,99953.55
2017-07-23T03:13:36.240Z,99960.39
2017-07-23T03:16:05.300Z,99966.27
2017-07-23T03:18:34.367Z,99956.39
2017-07-23T03:21:03.429Z,99956.34
2017-07-23T03:23:32.511Z,99951.20
2017-07-23T03:26:01.604Z,99954.97
2017-07-23T03:28:30.654Z,99960.67
2017-07-23T03:31:00.466Z,99966.61
2017-07-23T03:33:30.539Z,99977.03
2017-07-23T03:35:59.582Z,99978.02
2017-07-23T03:38:28.653Z,99976.84
2017-07-23T03:40:57.720Z,99979.79
2017-07-23T03:43:26.804Z,99977.81
2017-07-23T03:45:55.840Z,99978.02
2017-07-23T03:48:25.655Z,99993.50
2017-07-23T03:50:54.720Z,100023.37
2017-07-23T03:53:23.784Z,100041.14
2017-07-23T03:55:52.832Z,100031.30
2017-07-23T03:58:21.906Z,100049.60
2017-07-23T04:00:50.938Z,100059.96
2017-07-23T04:03:20.768Z,100040.70
2017-07-23T04:05:49.845Z,100058.34
2017-07-23T04:08:19.664Z,100062.31
2017-07-23T04:10:49.509Z,100052.92
2017-07-23T04:13:18.574Z,100048.02
2017-07-23T04:15:48.403Z,100055.86
2017-07-23T04:18:17.456Z,100052.42
2017-07-23T04:20:46.504Z,100063.19
2017-07-23T04:23:15.568Z,100070.02
2017-07-23T04:25:45.389Z,100076.47
2017-07-23T04:28:14.507Z,100074.64
2017-07-23T04:30:43.572Z,100074.70
2017-07-23T04:33:13.403Z,100088.47
2017-07-23T04:35:42.439Z,100098.53
2017-07-23T04:38:11.567Z,100096.32
2017-07-23T04:40:41.366Z,100108.25
2017-07-23T04:43:10.432Z,100111.00
2017-07-23T04:45:39.492Z,100117.02
2017-07-23T04:48:08.805Z,100117.27
2017-07-23T04:50:37.852Z,100122.28
2017-07-23T04:53:06.934Z,100121.09
2017-07-23T04:55:36.012Z,100122.91
2017-07-23T04:58:05.055Z,100125.28
2017-07-23T05:00:34.944Z,100121.99
2017-07-23T05:03:03.983Z,100126.39
2017-07-23T05:05:33.043Z,100136.94
2017-07-23T05:08:02.139Z,100138.85
2017-07-23T05:10:31.190Z,100139.30
2017-07-23T05:13:00.264Z,100144.60
2017-07-23T05:15:30.213Z,100150.05
2017-07-23T05:17:59.565Z,100155.38
2017-07-23T05:20:28.641Z,100153.84
2017-07-23T05:22:57.672Z,100163.20
2017-07-23T05:25:26.838Z,100161.02
2017-07-23T05:27:55.915Z,100163.25
2017-07-23T05:30:25.000Z,100171.86
2017-07-23T05:32:54.055Z,100163.27
2017-07-23T05:35:23.153Z,100169.66
2017-07-23T05:37:52.231Z,100178.94
2017-07-23T05:40:22.035Z,100174.40
2017-07-23T05:42:51.872Z,100176.58
2017-07-23T05:45:20.965Z,100172.25
2017-07-23T05:47:50.031Z,100179.33
2017-07-23T05:50:19.908Z,100177.77
2017-07-23T05:52:48.990Z,100188.44
2017-07-23T05:55:18.069Z,100180.13
2017-07-23T05:57:48.128Z,100187.04
2017-07-23T06:00:17.243Z,100190.11
2017-07-23T06:02:46.312Z,100186.31
2017-07-23T06:05:15.455Z,100191.20
2017-07-23T06:07:44.476Z,100196.30
2017-07-23T06:10:13.565Z,100193.64
2017-07-23T06:12:42.888Z,100189.69
2017-07-23T06:15:11.953Z,100193.16
2017-07-23T06:17:41.018Z,100191.06
2017-07-23T06:20:10.876Z,100192.98
2017-07-23T06:22:39.956Z,100193.25
2017-07-23T06:25:09.808Z,100195.84
2017-07-23T06:27:38.861Z,100203.99
2017-07-23T06:30:08.211Z,100215.04
2017-07-23T06:32:37.282Z,100205.61
2017-07-23T06:35:06.363Z,100209.83
2017-07-23T06:37:35.406Z,100214.02
2017-07-23T06:40:04.512Z,100212.41
2017-07-23T06:42:33.612Z,100214.30
2017-07-23T06:45:03.439Z,100209.75
2017-07-23T06:47:32.484Z,100214.38
2017-07-23T06:50:01.720Z,100208.58
2017-07-23T06:52:30.976Z,100215.18
2017-07-23T06:55:00.064Z,100222.80
2017-07-23T06:57:34.112Z,100221.13
2017-07-23T07:00:04.192Z,100229.98
2017-07-23T07:02:33.245Z,100225.39
2017-07-23T07:05:04.019Z,100223.52
2017-07-23T07:07:33.087Z,100224.18
2017-07-23T07:10:02.420Z,100219.06
2017-07-23T07:12:31.469Z,100226.19
2017-07-23T07:15:00.520Z,100221.48
2017-07-23T07:17:29.597Z,100224.03
2017-07-23T07:19:58.654Z,100230.08
2017-07-23T07:22:28.525Z,100230.36
2017-07-23T07:24:57.558Z,100231.59
2017-07-23T07:27:26.665Z,100234.59
2017-07-23T07:29:56.476Z,100239.82
2017-07-23T07:32:26.337Z,100239.69
2017-07-23T07:34:55.389Z,100235.04
2017-07-23T07:37:24.455Z,100236.48
2017-07-23T07:39:53.539Z,100237.88
2017-07-23T07:42:22.611Z,100239.44
2017-07-23T07:44:56.791Z,100245.64
2017-07-23T07:47:25.850Z,100243.23
2017-07-23T07:49:54.927Z,100244.94
2017-07-23T07:52:23.959Z,100226.34
2017-07-23T07:54:53.813Z,100239.73
2017-07-23T07:57:22.851Z,100239.70
2017-07-23T07:59:51.920Z,100235.98
2017-07-23T08:02:21.265Z,100224.41
2017-07-23T08:04:51.100Z,100225.69
2017-07-23T08:07:21.669Z,100223.97
2017-07-23T08:09:50.734Z,100226.73
2017-07-23T08:12:20.055Z,100229.92
2017-07-23T08:14:49.141Z,100235.83
2017-07-23T08:17:18.253Z,100236.55
2017-07-23T08:19:47.309Z,100235.73
2017-07-23T08:22:16.405Z,100230.80
2017-07-23T08:24:46.238Z,100229.41
2017-07-23T08:27:15.276Z,100235.72
2017-07-23T08:29:44.371Z,100240.63
2017-07-23T08:32:13.418Z,100238.44
2017-07-23T08:34:42.508Z,100241.24
2017-07-23T08:37:11.626Z,100236.66
2017-07-23T08:39:40.710Z,100245.18
2017-07-23T08:42:09.840Z,100243.79
2017-07-23T08:44:38.935Z,100238.66
2017-07-23T08:47:08.004Z,100241.40
2017-07-23T08:49:37.113Z,100240.97
2017-07-23T08:52:06.345Z,100244.94
2017-07-23T08:54:36.195Z,100249.64
2017-07-23T08:57:05.248Z,100251.50
2017-07-23T08:59:34.314Z,100258.05
2017-07-23T09:02:03.477Z,100250.31
2017-07-23T09:04:33.038Z,100259.66
2017-07-23T09:07:02.097Z,100256.53
2017-07-23T09:09:31.415Z,100258.77
2017-07-23T09:12:00.654Z,100267.88
2017-07-23T09:14:29.718Z,100260.72
2017-07-23T09:16:58.949Z,100259.42
2017-07-23T09:19:28.795Z,100266.50
2017-07-23T09:21:57.873Z,100274.26
2017-07-23T09:24:26.940Z,100276.62
2017-07-23T09:26:56.089Z,100277.00
2017-07-23T09:29:25.158Z,100271.10
2017-07-23T09:31:54.998Z,100277.68
2017-07-23T09:34:24.336Z,100278.38
2017-07-23T09:36:53.413Z,100278.96
2017-07-23T09:39:22.463Z,100276.73
2017-07-23T09:41:51.639Z,100278.47
2017-07-23T09:44:20.720Z,100280.77
2017-07-23T09:46:50.685Z,100282.94
2017-07-23T09:49:20.532Z,100276.30
2017-07-23T09:51:49.581Z,100273.92
2017-07-23T09:54:19.663Z,100270.97
2017-07-23T09:56:48.721Z,100271.83
2017-07-23T09:59:17.836Z,100271.66
2017-07-23T10:01:46.893Z,100272.09
2017-07-23T10:04:16.005Z,100269.55
2017-07-23T10:06:45.058Z,100269.72
2017-07-23T10:09:14.392Z,100274.67
2017-07-23T10:11:43.726Z,100266.90
2017-07-23T10:14:12.856Z,100269.34
2017-07-23T10:16:41.916Z,100258.48
2017-07-23T10:19:11.847Z,100258.67
2017-07-23T10:21:40.949Z,100254.53
2017-07-23T10:24:10.333Z,100247.59
2017-07-23T10:26:39.440Z,100254.45
2017-07-23T10:29:08.497Z,100242.17
2017-07-23T10:31:37.535Z,100247.92
2017-07-23T10:34:06.632Z,100248.30
2017-07-23T10:36:35.713Z,100254.08
2017-07-23T10:39:04.781Z,100239.05
2017-07-23T10:41:33.842Z,100240.19
2017-07-23T10:44:02.953Z,100233.87
2017-07-23T10:46:32.019Z,100245.77
2017-07-23T10:49:01.861Z,100246.82
2017-07-23T10:51:30.933Z,100247.24
2017-07-23T10:53:59.982Z,100255.72
2017-07-23T10:56:29.033Z,100254.17
2017-07-23T10:58:58.109Z,100257.52
2017-07-23T11:01:27.946Z,100259.29
2017-07-23T11:03:57.232Z,100260.89
2017-07-23T11:06:26.584Z,100254.36
2017-07-23T11:08:55.644Z,100251.56
2017-07-23T11:11:24.713Z,100241.09
2017-07-23T11:13:53.761Z,100251.78
2017-07-23T11:16:22.813Z,100260.29
2017-07-23T11:18:52.663Z,100251.76
2017-07-23T11:21:21.722Z,100263.83
2017-07-23T11:23:51.594Z,100252.94
2017-07-23T11:26:20.665Z,100261.84
2017-07-23T11:28:49.941Z,100256.47
2017-07-23T11:31:18.979Z,100267.69
2017-07-23T11:33:48.072Z,100263.16
2017-07-23T11:36:17.112Z,100270.07
2017-07-23T11:38:46.925Z,100264.08
2017-07-23T11:41:16.010Z,100264.27
2017-07-23T11:43:45.060Z,100269.80
2017-07-23T11:46:14.165Z,100262.12
2017-07-23T11:48:43.226Z,100267.03
2017-07-23T11:51:12.313Z,100257.94
2017-07-23T11:53:41.372Z,100255.38
2017-07-23T11:56:10.564Z,100255.98
2017-07-23T11:58:39.632Z,100259.03
2017-07-23T12:01:08.692Z,100249.59
2017-07-23T12:03:37.792Z,100255.93
2017-07-23T12:06:06.844Z,100256.72
2017-07-23T12:08:35.908Z,100251.96
2017-07-23T12:11:04.993Z,100254.95
2017-07-23T12:13:34.064Z,100250.37
2017-07-23T12:16:03.898Z,100238.94
2017-07-23T12:18:32.981Z,100234.16
2017-07-23T12:21:02.040Z,100238.88
2017-07-23T12:23:31.364Z,100234.33
2017-07-23T12:26:00.405Z,100240.25
2017-07-23T12:28:29.483Z,100239.28
2017-07-23T12:30:58.561Z,100231.77
2017-07-23T12:33:27.608Z,100231.77
2017-07-23T12:35:56.695Z,100230.75
2017-07-23T12:38:25.780Z,100236.48
2017-07-23T12:40:54.861Z,100232.94
2017-07-23T12:43:25.246Z,100230.96
2017-07-23T12:45:56.107Z,100232.95
2017-07-23T12:48:25.208Z,100234.56
2017-07-23T12:50:54.288Z,100235.40
2017-07-23T12:53:23.335Z,100243.26
2017-07-23T12:55:52.407Z,100241.49
2017-07-23T12:58:21.485Z,100238.36
2017-07-23T13:00:50.536Z,100232.44
2017-07-23T13:03:19.599Z,100239.30
2017-07-23T13:05:48.900Z,100244.45
2017-07-23T13:08:18.009Z,100247.82
2017-07-23T13:10:47.044Z,100258.29
2017-07-23T13:13:16.180Z,100258.09
2017-07-23T13:15:45.237Z,100252.76
2017-07-23T13:18:14.300Z,100250.39
2017-07-23T13:20:44.248Z,100255.14
2017-07-23T13:23:13.301Z,100245.47
2017-07-23T13:25:42.399Z,100253.93
2017-07-23T13:28:11.826Z,100252.77
2017-07-23T13:30:40.872Z,100244.86
2017-07-23T13:33:09.951Z,100250.39
2017-07-23T13:35:39.300Z,100244.89
2017-07-23T13:38:08.369Z,100244.25
2017-07-23T13:40:37.452Z,100243.87
2017-07-23T13:43:06.536Z,100234.97
2017-07-23T13:45:36.317Z,100243.08
2017-07-23T13:48:06.175Z,100247.22
2017-07-23T13:50:35.253Z,100246.63
2017-07-23T13:53:04.351Z,100237.36
2017-07-23T13:55:33.393Z,100238.14
2017-07-23T13:58:02.484Z,100246.64
2017-07-23T14:00:31.551Z,100246.06
2017-07-23T14:03:00.647Z,100251.56
2017-07-23T14:05:29.695Z,100252.75
2017-07-23T14:07:59.506Z,100253.14
2017-07-23T14:10:29.350Z,100254.75
2017-07-23T14:12:58.395Z,100256.31
2017-07-23T14:15:27.480Z,100245.65
2017-07-23T14:17:56.881Z,100244.47
2017-07-23T14:20:25.965Z,100247.63
2017-07-23T14:22:55.113Z,100239.93
2017-07-23T14:25:25.028Z,100241.30
2017-07-23T14:27:54.872Z,100239.91
2017-07-23T14:30:23.932Z,100233.78
2017-07-23T14:32:53.793Z,100231.02
2017-07-23T14:35:22.869Z,100230.22
2017-07-23T14:37:51.945Z,100234.36
2017-07-23T14:40:21.771Z,100223.09
2017-07-23T14:42:50.840Z,100223.09
2017-07-23T14:45:20.726Z,100220.13
2017-07-23T14:47:49.795Z,100212.59
2017-07-23T14:50:19.251Z,100213.15
2017-07-23T14:52:48.325Z,100205.41
2017-07-23T14:55:17.450Z,100203.00
2017-07-23T14:57:46.568Z,100201.59
2017-07-23T15:00:15.701Z,100198.03
2017-07-23T15:02:44.787Z,100200.59
2017-07-23T15:05:13.914Z,100201.52
2017-07-23T15:07:42.963Z,100199.53
2017-07-23T15:10:12.136Z,100197.79
2017-07-23T15:12:41.182Z,100204.36
2017-07-23T15:15:10.307Z,100206.22
2017-07-23T15:17:40.382Z,100218.35
2017-07-23T15:20:09.657Z,100230.25
2017-07-23T15:22:38.714Z,100241.11
2017-07-23T15:25:08.569Z,100259.84
2017-07-23T15:27:37.644Z,100271.16
2017-07-23T15:30:07.801Z,100263.48
2017-07-23T15:32:36.886Z,100265.33
2017-07-23T15:35:05.961Z,100260.59
2017-07-23T15:37:35.265Z,100255.16
2017-07-23T15:40:04.377Z,100263.33
2017-07-23T15:42:33.709Z,100253.50
2017-07-23T15:45:02.878Z,100257.63
2017-07-23T15:47:31.943Z,100250.14
2017-07-23T15:50:01.001Z,100246.20
2017-07-23T15:52:30.086Z,100252.20
2017-07-23T15:54:59.177Z,100243.02
2017-07-23T15:57:29.892Z,100238.37
2017-07-23T15:59:58.992Z,100233.48
2017-07-23T16:02:28.086Z,100235.06
2017-07-23T16:04:57.412Z,100238.45
2017-07-23T16:07:26.483Z,100229.58
2017-07-23T16:09:55.591Z,100222.30
2017-07-23T16:12:24.681Z,100220.33
2017-07-23T16:14:53.795Z,100219.01
2017-07-23T16:17:22.888Z,100208.96
2017-07-23T16:19:51.974Z,100210.37
2017-07-23T16:22:21.295Z,100207.45
2017-07-23T16:24:50.335Z,100204.91
2017-07-23T16:27:19.416Z,100202.94
2017-07-23T16:29:49.245Z,100204.52
2017-07-23T16:32:18.318Z,100204.94
2017-07-23T16:34:48.133Z,100199.79
2017-07-23T16:37:17.986Z,100198.80
2017-07-23T16:39:47.076Z,100188.35
2017-07-23T16:42:16.128Z,100195.89
2017-07-23T16:44:46.008Z,100185.46
2017-07-23T16:47:15.125Z,100184.30
2017-07-23T16:49:45.148Z,100191.03
2017-07-23T16:52:14.435Z,100193.17
2017-07-23T16:54:44.297Z,100192.20
2017-07-23T16:57:13.359Z,100199.14
2017-07-23T16:59:43.184Z,100191.64
2017-07-23T17:02:13.068Z,100193.03
2017-07-23T17:04:42.135Z,100202.50
2017-07-23T17:07:11.256Z,100201.73
2017-07-23T17:09:40.695Z,100201.71
2017-07-23T17:12:09.753Z,100203.50
2017-07-23T17:14:38.824Z,100201.14
2017-07-23T17:17:07.897Z,100197.19
2017-07-23T17:19:36.965Z,100197.23
2017-07-23T17:22:07.152Z,100194.62
2017-07-23T17:24:36.209Z,100195.22
2017-07-23T17:27:05.285Z,100197.59
2017-07-23T17:29:34.384Z,100201.71
2017-07-23T17:32:04.211Z,100195.80
2017-07-23T17:34:33.260Z,100201.50
2017-07-23T17:37:02.324Z,100196.18
2017-07-23T17:39:31.424Z,100187.47
2017-07-23T17:42:00.504Z,100193.20
2017-07-23T17:44:29.588Z,100185.48
2017-07-23T17:46:58.650Z,100183.89
2017-07-23T17:49:27.747Z,100178.91
2017-07-23T17:51:56.822Z,100182.06
2017-07-23T17:54:25.883Z,100177.92
2017-07-23T17:56:54.960Z,100181.05
2017-07-23T17:59:24.797Z,100182.04
2017-07-23T18:01:55.171Z,100185.40
2017-07-23T18:04:25.008Z,100182.41
2017-07-23T18:06:54.045Z,100184.98
2017-07-23T18:09:23.145Z,100191.42
2017-07-23T18:11:52.202Z,100192.80
2017-07-23T18:14:22.057Z,100190.63
2017-07-23T18:16:51.125Z,100188.40
2017-07-23T18:19:20.197Z,100186.81
2017-07-23T18:21:49.251Z,100190.33
2017-07-23T18:24:18.305Z,100190.13
2017-07-23T18:26:47.431Z,100184.38
2017-07-23T18:29:16.514Z,100186.94
2017-07-23T18:31:45.576Z,100190.65
2017-07-23T18:34:14.648Z,100188.08
2017-07-23T18:36:45.096Z,100190.80
2017-07-23T18:39:14.173Z,100198.20
2017-07-23T18:41:44.023Z,100195.58
2017-07-23T18:44:13.093Z,100198.23
2017-07-23T18:46:42.184Z,100187.56
2017-07-23T18:49:12.287Z,100185.53
2017-07-23T18:51:41.365Z,100192.33
2017-07-23T18:54:10.435Z,100194.05
2017-07-23T18:56:39.499Z,100197.59
2017-07-23T18:59:08.620Z,100195.75
2017-07-23T19:01:37.672Z,100195.88
2017-07-23T19:04:06.793Z,100193.24
2017-07-23T19:06:36.117Z,100192.80
2017-07-23T19:09:05.167Z,100185.30
2017-07-23T19:11:34.297Z,100190.97
2017-07-23T19:14:04.075Z,100188.20
2017-07-23T19:16:33.895Z,100192.32
2017-07-23T19:19:03.280Z,100198.16
2017-07-23T19:21:32.309Z,100190.68
2017-07-23T19:24:01.422Z,100196.33
2017-07-23T19:26:30.488Z,100191.02
2017-07-23T19:28:59.599Z,100195.93
2017-07-23T19:31:28.660Z,100195.94
2017-07-23T19:33:58.480Z,100198.30
2017-07-23T19:36:27.562Z,100193.78
2017-07-23T19:38:56.633Z,100202.14
2017-07-23T19:41:25.718Z,100196.90
2017-07-23T19:43:54.795Z,100200.06
2017-07-23T19:46:23.847Z,100197.03
2017-07-23T19:48:53.699Z,100197.30
2017-07-23T19:51:22.765Z,100193.83
2017-07-23T19:53:51.868Z,100190.10
2017-07-23T19:56:20.941Z,100187.59
2017-07-23T19:58:50.807Z,100190.37
2017-07-23T20:01:19.935Z,100183.41
2017-07-23T20:03:49.028Z,100190.28
2017-07-23T20:06:18.079Z,100193.37
2017-07-23T20:08:47.160Z,100192.19
2017-07-23T20:11:16.218Z,100198.70
2017-07-23T20:13:45.298Z,100190.42
2017-07-23T20:16:15.389Z,100202.41
2017-07-23T20:18:44.472Z,100198.81
2017-07-23T20:21:13.824Z,100195.44
2017-07-23T20:23:42.873Z,100195.98
2017-07-23T20:26:11.935Z,100193.62
2017-07-23T20:28:41.857Z,100185.94
2017-07-23T20:31:10.972Z,100190.85
2017-07-23T20:33:40.996Z,100186.33
2017-07-23T20:36:10.079Z,100189.08
2017-07-23T20:38:39.138Z,100194.19
2017-07-23T20:41:08.243Z,100185.95
2017-07-23T20:43:37.310Z,100189.86
2017-07-23T20:46:06.391Z,100174.88
2017-07-23T20:48:35.448Z,100181.34
2017-07-23T20:51:04.571Z,100180.34
2017-07-23T20:53:33.623Z,100188.14
2017-07-23T20:56:03.449Z,100185.70
2017-07-23T20:58:32.507Z,100190.70
2017-07-23T21:01:01.562Z,100189.49
2017-07-23T21:03:30.632Z,100177.70
2017-07-23T21:05:59.703Z,100183.33
2017-07-23T21:08:28.783Z,100182.75
2017-07-23T21:10:57.892Z,100177.04
2017-07-23T21:13:26.952Z,100176.64
2017-07-23T21:15:56.008Z,100174.28
2017-07-23T21:18:25.063Z,100173.64
2017-07-23T21:20:54.145Z,100169.90
2017-07-23T21:23:23.205Z,100182.86
2017-07-23T21:25:52.261Z,100171.47
2017-07-23T21:28:22.124Z,100171.04
2017-07-23T21:30:51.193Z,100163.58
2017-07-23T21:33:20.287Z,100172.18
2017-07-23T21:35:50.092Z,100176.47
2017-07-23T21:38:19.927Z,100171.47
2017-07-23T21:40:49.000Z,100172.95
2017-07-23T21:43:18.085Z,100168.01
2017-07-23T21:45:47.905Z,100165.87
2017-07-23T21:48:17.741Z,100171.19
2017-07-23T21:50:47.534Z,100168.64
2017-07-23T21:53:17.357Z,100174.64
2017-07-23T21:55:46.432Z,100169.19
2017-07-23T21:58:15.569Z,100161.13
2017-07-23T22:00:44.667Z,100162.91
2017-07-23T22:03:14.007Z,100158.20
2017-07-23T22:05:43.074Z,100155.78
2017-07-23T22:08:12.232Z,100153.59
2017-07-23T22:10:42.021Z,100155.30
2017-07-23T22:13:11.900Z,100156.23
2017-07-23T22:15:40.942Z,100145.63
2017-07-23T22:18:10.773Z,100156.19
2017-07-23T22:20:39.850Z,100149.11
2017-07-23T22:23:08.939Z,100155.19
2017-07-23T22:25:38.780Z,100155.16
2017-07-23T22:28:07.854Z,100146.83
2017-07-23T22:30:38.065Z,100136.81
2017-07-23T22:33:07.988Z,100136.95
2017-07-23T22:35:37.821Z,100128.56
2017-07-23T22:38:07.081Z,100129.34
2017-07-23T22:40:36.129Z,100140.66
2017-07-23T22:43:05.213Z,100136.11
2017-07-23T22:45:34.276Z,100131.16
2017-07-23T22:48:03.373Z,100137.03
2017-07-23T22:50:32.452Z,100130.61
2017-07-23T22:53:01.541Z,100130.16
2017-07-23T22:55:30.612Z,100136.04
2017-07-23T22:57:59.670Z,100123.98
2017-07-23T23:00:28.748Z,100119.52
2017-07-23T23:02:58.558Z,100119.05
2017-07-23T23:05:27.621Z,100114.94
2017-07-23T23:07:56.716Z,100118.54
2017-07-23T23:10:25.792Z,100111.48
2017-07-23T23:12:54.852Z,100113.78
2017-07-23T23:15:24.671Z,100106.19
2017-07-23T23:17:53.735Z,100098.92
2017-07-23T23:20:22.796Z,100102.38
2017-07-23T23:22:51.840Z,100089.25
2017-07-23T23:25:20.974Z,100083.42
2017-07-23T23:27:50.025Z,100088.16
2017-07-23T23:30:19.063Z,100081.27
2017-07-23T23:32:48.128Z,100077.75
2017-07-23T23:35:17.948Z,100084.83
2017-07-23T23:37:46.996Z,100078.35
2017-07-23T23:40:16.069Z,100081.55
2017-07-23T23:42:45.277Z,100078.81
2017-07-23T23:45:14.323Z,100070.98
2017-07-23T23:47:43.411Z,100075.06
2017-07-23T23:50:12.459Z,100067.36
2017-07-23T23:52:41.520Z,100068.34
2017-07-23T23:55:10.588Z,100070.67
2017-07-23T23:57:40.432Z,100063.79
